Time;durP1;ratioP1;P1;durP2;ratioP2;P2;SDS_P1;SDS_P2;PMS_P1;PMS_P2;Temp;Humidity;BMP_temperature;BMP_pressure;BME280_temperature;BME280_humidity;BME280_pressure;Samples;Min_cycle;Max_cycle;Signal;HPM_P1;HPM_P2
2023/07/15 00:00:31;;;;;;;;;;;;;;;21.75;53.33;100404.00;5041355;28;19971;-45
2023/07/15 00:02:56;;;;;;;;;;;;;;;21.80;51.87;100407.34;5062811;28;19920;-47
2023/07/15 00:05:28;;;;;;;;;;;;;;;21.82;52.69;100401.19;5058256;28;19972;-46
2023/07/15 00:07:53;;;;;;;;;;;;;;;21.86;51.92;100412.44;5062081;28;19963;-45
2023/07/15 00:10:21;;;;;;;;;;;;;;;21.91;53.02;100415.81;5060604;28;19951;-47
2023/07/15 00:12:46;;;;;;;;;;;;;;;21.92;51.65;100407.03;5059486;28;19921;-46
2023/07/15 00:15:12;;;;;;;;;;;;;;;21.93;52.22;100399.16;5060580;28;19928;-46
2023/07/15 00:17:38;;;;;;;;;;;;;;;21.90;51.13;100406.22;5060006;28;19923;-45
2023/07/15 00:20:07;;;;;;;;;;;;;;;21.89;51.68;100405.34;5055411;28;19925;-46
2023/07/15 00:22:32;;;;;;;;;;;;;;;21.88;51.70;100413.25;5063344;28;20124;-46
2023/07/15 00:24:58;;;;;;;;;;;;;;;21.90;51.40;100411.44;5060341;28;20392;-46
2023/07/15 00:27:24;;;;;;;;;;;;;;;21.91;50.92;100406.19;5060965;28;20285;-48
2023/07/15 00:29:50;;;;;;;;;;;;;;;21.93;51.46;100398.28;5060104;28;19926;-48
2023/07/15 00:32:16;;;;;;;;;;;;;;;21.98;50.20;100406.03;5061931;28;19921;-45
2023/07/15 00:34:41;;;;;;;;;;;;;;;22.03;50.90;100401.53;5063451;28;19916;-45
2023/07/15 00:37:07;;;;;;;;;;;;;;;22.03;50.80;100393.69;5062756;28;19925;-49
2023/07/15 00:39:32;;;;;;;;;;;;;;;22.02;50.36;100407.66;5063756;28;20370;-48
2023/07/15 00:41:59;;;;;;;;;;;;;;;22.01;50.91;100406.78;5060484;28;19924;-49
2023/07/15 00:44:24;;;;;;;;;;;;;;;22.02;50.82;100402.41;5048632;28;19920;-45
2023/07/15 00:46:59;;;;;;;;;;;;;;;22.04;50.81;100406.72;5064916;28;20677;-46
2023/07/15 00:49:34;;;;;;;;;;;;;;;22.05;50.27;100408.44;5065900;27;19923;-48
2023/07/15 00:52:02;;;;;;;;;;;;;;;22.10;49.84;100410.97;5062797;28;20401;-46
2023/07/15 00:54:30;;;;;;;;;;;;;;;22.12;50.37;100411.78;5065309;28;19923;-47
2023/07/15 00:56:56;;;;;;;;;;;;;;;22.13;49.88;100421.34;5065485;28;19924;-51
2023/07/15 00:59:21;;;;;;;;;;;;;;;22.17;50.38;100421.25;5066121;28;19920;-46
2023/07/15 01:01:49;;;;;;;;;;;;;;;22.22;50.15;100418.50;5063868;28;19928;-48
2023/07/15 01:04:15;;;;;;;;;;;;;;;22.19;49.88;100421.19;5062712;28;20015;-54
2023/07/15 01:06:45;;;;;;;;;;;;;;;22.16;50.34;100419.53;5064004;28;19925;-52
2023/07/15 01:09:10;;;;;;;;;;;;;;;22.12;50.05;100428.34;5062933;28;20015;-52
2023/07/15 01:11:36;;;;;;;;;;;;;;;22.08;50.89;100429.28;5064672;27;20027;-53
2023/07/15 01:14:02;;;;;;;;;;;;;;;22.06;50.52;100433.72;5060873;28;20289;-53
2023/07/15 01:16:28;;;;;;;;;;;;;;;22.01;50.37;100432.13;5062250;28;19963;-52
2023/07/15 01:18:53;;;;;;;;;;;;;;;21.91;50.65;100427.13;5062794;28;20457;-52
2023/07/15 01:21:19;;;;;;;;;;;;;;;21.85;51.20;100429.91;5046523;28;19976;-52
2023/07/15 01:23:45;;;;;;;;;;;;;;;21.79;51.19;100427.44;5061427;28;19964;-53
2023/07/15 01:26:10;;;;;;;;;;;;;;;21.74;51.28;100431.91;5060838;28;20309;-51
2023/07/15 01:28:36;;;;;;;;;;;;;;;21.66;51.47;100426.03;5061462;28;19939;-49
2023/07/15 01:31:02;;;;;;;;;;;;;;;21.59;51.59;100424.44;5062385;28;20011;-49
2023/07/15 01:33:27;;;;;;;;;;;;;;;21.53;51.94;100419.34;5060229;27;20492;-46
2023/07/15 01:35:52;;;;;;;;;;;;;;;21.49;52.05;100434.28;5064362;28;19935;-46
2023/07/15 01:38:18;;;;;;;;;;;;;;;21.44;52.31;100435.28;5043965;28;19932;-49
2023/07/15 01:40:43;;;;;;;;;;;;;;;21.38;52.23;100431.91;5065905;28;20390;-47
2023/07/15 01:43:09;;;;;;;;;;;;;;;21.33;52.58;100430.28;5060079;28;20022;-47
2023/07/15 01:45:35;;;;;;;;;;;;;;;21.25;52.73;100435.66;5047180;28;19952;-45
2023/07/15 01:48:00;;;;;;;;;;;;;;;21.19;52.95;100437.56;5062132;28;19956;-46
2023/07/15 01:50:26;;;;;;;;;;;;;;;21.10;53.04;100434.25;5064917;28;19959;-45
2023/07/15 01:52:51;;;;;;;;;;;;;;;21.04;52.87;100436.13;5061731;28;19921;-48
2023/07/15 01:55:16;;;;;;;;;;;;;;;20.98;53.49;100438.88;5063464;28;21064;-47
2023/07/15 01:57:41;;;;;;;;;;;;;;;20.93;53.69;100439.00;5064227;27;20011;-50
2023/07/15 02:00:08;;;;;;;;;;;;;;;20.88;53.53;100446.06;5058204;28;19921;-49
2023/07/15 02:02:34;;;;;;;;;;;;;;;20.83;53.95;100435.69;5064521;28;19924;-50
2023/07/15 02:04:59;;;;;;;;;;;;;;;20.79;54.03;100438.41;5059898;28;19927;-49
2023/07/15 02:07:24;;;;;;;;;;;;;;;20.75;54.36;100444.56;5043566;28;19958;-46
2023/07/15 02:09:49;;;;;;;;;;;;;;;20.68;54.52;100451.69;5063556;28;19921;-47
2023/07/15 02:12:15;;;;;;;;;;;;;;;20.67;54.69;100446.50;5058010;28;19925;-45
2023/07/15 02:14:40;;;;;;;;;;;;;;;20.66;54.61;100440.41;5059348;28;20268;-47
2023/07/15 02:17:06;;;;;;;;;;;;;;;20.66;54.74;100450.84;5061347;28;19969;-46
2023/07/15 02:19:31;;;;;;;;;;;;;;;20.64;54.42;100450.03;5061409;28;19917;-50
2023/07/15 02:21:57;;;;;;;;;;;;;;;20.59;54.32;100446.66;5063649;28;19920;-48
2023/07/15 02:24:22;;;;;;;;;;;;;;;20.53;54.80;100449.38;5063065;28;19932;-49
2023/07/15 02:26:47;;;;;;;;;;;;;;;20.48;54.78;100446.84;5041754;28;19927;-47
2023/07/15 02:29:13;;;;;;;;;;;;;;;20.43;55.33;100453.03;5060832;28;19972;-49
2023/07/15 02:31:38;;;;;;;;;;;;;;;20.38;55.73;100450.50;5061567;28;20465;-48
2023/07/15 02:34:04;;;;;;;;;;;;;;;20.32;55.70;100446.28;5063179;27;19927;-47
2023/07/15 02:36:29;;;;;;;;;;;;;;;20.29;55.93;100455.91;5063302;27;19943;-45
2023/07/15 02:38:55;;;;;;;;;;;;;;;20.25;56.07;100454.22;5063898;28;19920;-50
2023/07/15 02:41:20;;;;;;;;;;;;;;;20.24;55.72;100457.72;5063073;28;19920;-46
2023/07/15 02:43:45;;;;;;;;;;;;;;;20.18;56.50;100458.69;5063372;27;19921;-46
2023/07/15 02:46:10;;;;;;;;;;;;;;;20.14;56.44;100451.78;5059800;28;19925;-45
2023/07/15 02:48:35;;;;;;;;;;;;;;;20.11;57.12;100448.41;5062020;28;19964;-45
2023/07/15 02:51:01;;;;;;;;;;;;;;;20.06;56.73;100448.47;5059193;28;20043;-47
2023/07/15 02:53:27;;;;;;;;;;;;;;;20.01;57.37;100442.47;5061949;28;19928;-46
2023/07/15 02:55:52;;;;;;;;;;;;;;;19.96;57.16;100444.28;5061045;27;19920;-46
2023/07/15 02:58:18;;;;;;;;;;;;;;;19.90;57.47;100434.84;5060848;28;19928;-45
2023/07/15 03:00:44;;;;;;;;;;;;;;;19.83;58.02;100441.88;5060664;28;20035;-45
2023/07/15 03:03:10;;;;;;;;;;;;;;;19.78;57.66;100441.13;5064353;28;20015;-51
2023/07/15 03:05:36;;;;;;;;;;;;;;;19.71;58.80;100436.88;5059727;28;19960;-52
2023/07/15 03:08:01;;;;;;;;;;;;;;;19.65;58.47;100438.72;5063140;28;19925;-52
2023/07/15 03:10:26;;;;;;;;;;;;;;;19.58;58.61;100443.16;5045530;28;19921;-51
2023/07/15 03:12:52;;;;;;;;;;;;;;;19.53;58.65;100442.34;5063472;28;19979;-52
2023/07/15 03:15:17;;;;;;;;;;;;;;;19.47;59.27;100440.69;5062958;27;20389;-51
2023/07/15 03:17:43;;;;;;;;;;;;;;;19.43;59.54;100441.63;5060845;28;19925;-51
2023/07/15 03:20:19;;;;;;;;;;;;;;;19.37;60.39;100436.50;5060086;27;20427;-51
2023/07/15 03:22:48;;;;;;;;;;;;;;;19.32;60.71;100442.69;5061886;28;19931;-53
2023/07/15 03:25:14;;;;;;;;;;;;;;;19.25;60.55;100445.38;5060140;28;20014;-50
2023/07/15 03:27:39;;;;;;;;;;;;;;;19.19;60.99;100442.00;5062831;28;20003;-51
2023/07/15 03:30:07;;;;;;;;;;;;;;;19.13;61.06;100448.16;5060178;28;20358;-52
2023/07/15 03:32:33;;;;;;;;;;;;;;;19.08;61.01;100457.78;5061864;28;20413;-52
2023/07/15 03:34:58;;;;;;;;;;;;;;;19.03;61.20;100449.16;5060932;28;19920;-52
2023/07/15 03:37:25;;;;;;;;;;;;;;;19.00;60.94;100451.81;5062222;28;20021;-53
2023/07/15 03:39:52;;;;;;;;;;;;;;;18.95;61.43;100451.84;5055985;28;19921;-52
2023/07/15 03:42:17;;;;;;;;;;;;;;;18.91;61.79;100447.56;5058561;27;20007;-53
2023/07/15 03:44:42;;;;;;;;;;;;;;;18.88;61.85;100446.75;5062309;27;20039;-51
2023/07/15 03:47:07;;;;;;;;;;;;;;;18.81;62.33;100438.16;5055874;28;19980;-46
2023/07/15 03:49:33;;;;;;;;;;;;;;;18.77;62.97;100443.41;5058315;28;19928;-45
2023/07/15 03:51:58;;;;;;;;;;;;;;;18.73;62.95;100453.84;5059247;28;20282;-45
2023/07/15 03:54:24;;;;;;;;;;;;;;;18.70;63.61;100446.09;5059825;28;19948;-47
2023/07/15 03:56:49;;;;;;;;;;;;;;;18.69;63.35;100441.78;5061690;28;20071;-47
2023/07/15 03:59:14;;;;;;;;;;;;;;;18.67;64.17;100438.31;5054925;28;20007;-47
2023/07/15 04:01:39;;;;;;;;;;;;;;;18.67;63.82;100442.66;5042335;28;19928;-48
2023/07/15 04:04:08;;;;;;;;;;;;;;;18.66;64.03;100438.28;5061559;28;19927;-49
2023/07/15 04:06:34;;;;;;;;;;;;;;;18.64;64.06;100448.75;5062607;28;19948;-48
2023/07/15 04:08:59;;;;;;;;;;;;;;;18.63;63.63;100446.16;5058316;28;20342;-47
2023/07/15 04:11:24;;;;;;;;;;;;;;;18.63;64.52;100436.59;5043387;28;19921;-48
2023/07/15 04:13:49;;;;;;;;;;;;;;;18.63;64.07;100434.00;5062408;28;19920;-49
2023/07/15 04:16:15;;;;;;;;;;;;;;;18.64;64.48;100437.47;5043439;28;19924;-50
2023/07/15 04:18:42;;;;;;;;;;;;;;;18.63;65.00;100433.13;5059506;28;19927;-48
2023/07/15 04:21:07;;;;;;;;;;;;;;;18.63;64.55;100440.94;5057601;27;19924;-45
2023/07/15 04:23:33;;;;;;;;;;;;;;;18.63;64.44;100444.41;5060043;27;19931;-46
2023/07/15 04:25:58;;;;;;;;;;;;;;;18.64;64.67;100443.53;5059792;28;19920;-47
2023/07/15 04:28:24;;;;;;;;;;;;;;;18.67;64.58;100453.94;5060650;28;19932;-48
2023/07/15 04:30:49;;;;;;;;;;;;;;;18.70;64.29;100453.91;5058612;28;20038;-46
2023/07/15 04:33:15;;;;;;;;;;;;;;;18.76;64.37;100447.75;5056018;28;20286;-44
2023/07/15 04:35:40;;;;;;;;;;;;;;;19.24;64.55;100450.63;5061631;28;19928;-45
2023/07/15 04:38:06;;;;;;;;;;;;;;;20.05;62.72;100454.59;5061101;28;19969;-53
2023/07/15 04:40:31;;;;;;;;;;;;;;;20.79;60.52;100460.16;5060553;28;19999;-52
2023/07/15 04:42:56;;;;;;;;;;;;;;;21.54;59.16;100469.03;5057426;28;19927;-52
2023/07/15 04:45:21;;;;;;;;;;;;;;;22.20;57.46;100464.81;5063561;28;19921;-53
2023/07/15 04:47:47;;;;;;;;;;;;;;;22.78;56.35;100462.38;5065734;28;19948;-53
2023/07/15 04:50:12;;;;;;;;;;;;;;;23.25;54.94;100461.84;5064984;27;19931;-52
2023/07/15 04:52:37;;;;;;;;;;;;;;;23.66;53.41;100466.72;5057656;28;19944;-52
2023/07/15 04:55:03;;;;;;;;;;;;;;;23.88;53.35;100466.91;5059734;28;19972;-53
2023/07/15 04:57:28;;;;;;;;;;;;;;;24.11;53.32;100463.50;5056775;28;20016;-54
2023/07/15 04:59:53;;;;;;;;;;;;;;;24.36;52.50;100456.50;5043955;28;19924;-52
2023/07/15 05:02:19;;;;;;;;;;;;;;;24.52;52.20;100456.84;5057210;28;19917;-45
2023/07/15 05:04:44;;;;;;;;;;;;;;;24.59;51.66;100459.19;5063410;27;19927;-45
2023/07/15 05:07:09;;;;;;;;;;;;;;;24.40;51.61;100458.13;5059293;27;19974;-47
2023/07/15 05:09:34;;;;;;;;;;;;;;;24.00;52.34;100461.22;5068777;27;19920;-47
2023/07/15 05:12:00;;;;;;;;;;;;;;;23.56;52.28;100460.91;5062672;28;20399;-49
2023/07/15 05:14:25;;;;;;;;;;;;;;;23.49;53.02;100451.50;5045144;28;19927;-49
2023/07/15 05:16:51;;;;;;;;;;;;;;;23.77;53.67;100448.88;5056899;28;19925;-49
2023/07/15 05:19:16;;;;;;;;;;;;;;;24.14;52.38;100460.75;5059556;28;20301;-49
2023/07/15 05:21:41;;;;;;;;;;;;;;;24.48;51.39;100458.69;5065404;28;19916;-47
2023/07/15 05:24:06;;;;;;;;;;;;;;;24.75;51.12;100458.59;5066786;28;20015;-54
2023/07/15 05:26:32;;;;;;;;;;;;;;;24.81;51.13;100463.63;5067863;28;19968;-55
2023/07/15 05:28:57;;;;;;;;;;;;;;;24.62;51.61;100463.47;5068847;28;20374;-53
2023/07/15 05:31:22;;;;;;;;;;;;;;;24.65;51.25;100463.34;5068968;28;19917;-54
2023/07/15 05:33:47;;;;;;;;;;;;;;;24.81;51.39;100472.41;5048238;28;19924;-54
2023/07/15 05:36:14;;;;;;;;;;;;;;;24.93;50.55;100470.22;5068737;28;19967;-54
2023/07/15 05:38:42;;;;;;;;;;;;;;;24.99;50.99;100473.47;5068457;28;19927;-54
2023/07/15 05:41:07;;;;;;;;;;;;;;;25.07;50.05;100466.19;5069151;27;19959;-54
2023/07/15 05:43:33;;;;;;;;;;;;;;;25.17;50.20;100471.94;5044434;28;19964;-54
2023/07/15 05:45:58;;;;;;;;;;;;;;;25.22;49.79;100469.16;5065648;28;19920;-54
2023/07/15 05:48:23;;;;;;;;;;;;;;;25.26;50.37;100457.59;5067193;27;20030;-46
2023/07/15 05:50:48;;;;;;;;;;;;;;;25.35;50.94;100468.59;5068287;27;20564;-49
2023/07/15 05:53:14;;;;;;;;;;;;;;;25.44;50.53;100477.94;5068076;28;19924;-46
2023/07/15 05:55:39;;;;;;;;;;;;;;;25.54;50.26;100481.03;5066607;27;19925;-46
2023/07/15 05:58:09;;;;;;;;;;;;;;;25.57;50.71;100483.56;5065773;28;19920;-47
2023/07/15 06:00:35;;;;;;;;;;;;;;;25.52;50.52;100486.38;5064804;28;19920;-47
2023/07/15 06:03:00;;;;;;;;;;;;;;;25.66;50.66;100484.06;5066264;28;20290;-46
2023/07/15 06:05:26;;;;;;;;;;;;;;;25.72;49.88;100488.19;5065580;28;19936;-46
2023/07/15 06:07:51;;;;;;;;;;;;;;;25.60;50.04;100486.06;5067070;28;20388;-47
2023/07/15 06:10:16;;;;;;;;;;;;;;;25.45;50.33;100478.78;5066707;28;20343;-47
2023/07/15 06:12:42;;;;;;;;;;;;;;;25.33;51.47;100470.44;5066624;28;20011;-46
2023/07/15 06:15:07;;;;;;;;;;;;;;;25.46;52.07;100475.22;5066439;28;19920;-46
2023/07/15 06:17:32;;;;;;;;;;;;;;;25.81;51.79;100482.59;5066242;28;19925;-48
2023/07/15 06:19:58;;;;;;;;;;;;;;;25.86;51.18;100483.28;5031579;28;19925;-47
2023/07/15 06:22:23;;;;;;;;;;;;;;;25.82;51.01;100492.22;5059751;28;20365;-46
2023/07/15 06:24:48;;;;;;;;;;;;;;;25.85;51.81;100489.47;5063166;28;19916;-46
2023/07/15 06:27:13;;;;;;;;;;;;;;;25.84;51.11;100486.88;5048742;28;19936;-45
2023/07/15 06:29:39;;;;;;;;;;;;;;;25.98;50.79;100486.31;5064713;28;19920;-46
2023/07/15 06:32:04;;;;;;;;;;;;;;;26.16;50.56;100493.44;5066058;27;20012;-50
2023/07/15 06:34:31;;;;;;;;;;;;;;;26.30;50.44;100483.16;5056243;28;19972;-47
2023/07/15 06:36:56;;;;;;;;;;;;;;;26.53;51.30;100473.44;5059727;28;20406;-49
2023/07/15 06:39:22;;;;;;;;;;;;;;;26.68;48.66;100475.38;5058190;28;19920;-48
2023/07/15 06:41:47;;;;;;;;;;;;;;;26.68;49.69;100478.88;5059585;28;20289;-50
2023/07/15 06:44:12;;;;;;;;;;;;;;;26.83;49.20;100487.03;5063134;28;19920;-48
2023/07/15 06:46:37;;;;;;;;;;;;;;;26.57;49.65;100483.75;5063822;28;19924;-49
2023/07/15 06:49:03;;;;;;;;;;;;;;;26.27;50.03;100487.69;5064156;28;20441;-48
2023/07/15 06:51:28;;;;;;;;;;;;;;;25.96;50.65;100493.41;5042441;28;19925;-50
2023/07/15 06:53:53;;;;;;;;;;;;;;;25.73;52.24;100491.72;5059082;28;19940;-49
2023/07/15 06:56:18;;;;;;;;;;;;;;;25.56;52.06;100485.34;5055292;27;19947;-48
2023/07/15 06:58:44;;;;;;;;;;;;;;;25.22;53.15;100492.81;5064103;28;19928;-48
2023/07/15 07:01:09;;;;;;;;;;;;;;;25.09;53.85;100477.50;5061395;27;19965;-55
2023/07/15 07:03:34;;;;;;;;;;;;;;;25.24;53.98;100472.56;5064397;28;19952;-49
2023/07/15 07:06:01;;;;;;;;;;;;;;;25.54;53.69;100479.28;5065723;28;20383;-48
2023/07/15 07:08:26;;;;;;;;;;;;;;;25.73;53.35;100476.78;5065457;27;19912;-48
2023/07/15 07:10:52;;;;;;;;;;;;;;;26.00;52.96;100481.84;5065238;27;19919;-52
2023/07/15 07:13:18;;;;;;;;;;;;;;;26.04;53.14;100475.53;5062372;27;19917;-48
2023/07/15 07:15:43;;;;;;;;;;;;;;;26.30;52.78;100477.03;5057911;28;19960;-50
2023/07/15 07:18:08;;;;;;;;;;;;;;;26.40;53.26;100478.38;5062432;28;19970;-50
2023/07/15 07:20:33;;;;;;;;;;;;;;;26.45;52.51;100481.66;5056396;27;19921;-47
2023/07/15 07:22:59;;;;;;;;;;;;;;;26.35;52.86;100490.88;5051123;28;19925;-47
2023/07/15 07:25:24;;;;;;;;;;;;;;;26.07;53.78;100485.91;5058733;28;19964;-50
2023/07/15 07:27:49;;;;;;;;;;;;;;;26.08;53.58;100483.22;5060589;28;19917;-48
2023/07/15 07:30:14;;;;;;;;;;;;;;;25.89;54.50;100493.66;5056007;28;20275;-50
2023/07/15 07:32:40;;;;;;;;;;;;;;;26.16;53.72;100491.66;5058212;28;19912;-51
2023/07/15 07:35:05;;;;;;;;;;;;;;;26.28;53.97;100499.97;5065496;28;19932;-48
2023/07/15 07:37:31;;;;;;;;;;;;;;;26.34;53.87;100499.72;5067789;28;19920;-47
2023/07/15 07:39:56;;;;;;;;;;;;;;;26.35;54.02;100498.78;5059781;27;20267;-50
2023/07/15 07:42:21;;;;;;;;;;;;;;;26.39;53.84;100500.34;5061097;28;19917;-47
2023/07/15 07:44:46;;;;;;;;;;;;;;;26.40;53.34;100516.16;5058587;27;20026;-51
2023/07/15 07:47:12;;;;;;;;;;;;;;;26.05;54.39;100500.94;5055739;28;19925;-50
2023/07/15 07:49:38;;;;;;;;;;;;;;;26.02;55.12;100501.91;5055782;28;19917;-50
2023/07/15 07:52:03;;;;;;;;;;;;;;;26.25;54.72;100497.47;5054873;27;20017;-50
2023/07/15 07:54:29;;;;;;;;;;;;;;;26.48;53.80;100492.09;5065589;28;20576;-49
2023/07/15 07:56:54;;;;;;;;;;;;;;;26.55;53.46;100493.53;5061943;28;19950;-47
2023/07/15 07:59:19;;;;;;;;;;;;;;;26.53;53.51;100490.13;5065057;28;19923;-49
2023/07/15 08:01:45;;;;;;;;;;;;;;;26.65;53.56;100484.28;5065036;28;20028;-48
2023/07/15 08:04:10;;;;;;;;;;;;;;;26.88;53.25;100487.69;5064462;28;19916;-47
2023/07/15 08:06:35;;;;;;;;;;;;;;;26.75;52.62;100476.81;5066276;28;19924;-48
2023/07/15 08:09:01;;;;;;;;;;;;;;;26.45;53.61;100495.72;5054980;28;20357;-49
2023/07/15 08:11:26;;;;;;;;;;;;;;;26.40;54.49;100499.47;5058545;28;19920;-50
2023/07/15 08:13:53;;;;;;;;;;;;;;;26.61;54.19;100498.53;5054593;28;19924;-50
2023/07/15 08:16:34;;;;;;;;;;;;;;;26.85;53.30;100495.72;5059295;28;19920;-49
2023/07/15 08:19:00;;;;;;;;;;;;;;;26.84;53.57;100502.78;5059080;28;20354;-48
2023/07/15 08:21:26;;;;;;;;;;;;;;;26.76;54.04;100490.88;5058646;28;20398;-47
2023/07/15 08:23:52;;;;;;;;;;;;;;;26.56;54.45;100499.66;5063305;28;19947;-49
2023/07/15 08:26:17;;;;;;;;;;;;;;;26.32;54.68;100493.63;5043720;28;20477;-48
2023/07/15 08:28:42;;;;;;;;;;;;;;;26.24;54.62;100504.50;5064836;28;20236;-49
2023/07/15 08:31:07;;;;;;;;;;;;;;;26.00;55.36;100516.94;5061485;27;19988;-48
2023/07/15 08:33:33;;;;;;;;;;;;;;;25.93;55.54;100518.13;5059453;27;19913;-49
2023/07/15 08:35:58;;;;;;;;;;;;;;;25.90;56.17;100523.50;5062800;27;20448;-48
2023/07/15 08:38:23;;;;;;;;;;;;;;;25.80;56.07;100511.63;5061366;27;20404;-47
2023/07/15 08:40:50;;;;;;;;;;;;;;;25.77;56.17;100520.50;5064886;27;19931;-47
2023/07/15 08:43:16;;;;;;;;;;;;;;;25.82;56.20;100515.06;5063577;28;20400;-47
2023/07/15 08:45:41;;;;;;;;;;;;;;;25.81;56.68;100519.47;5065241;27;19913;-50
2023/07/15 08:48:07;;;;;;;;;;;;;;;25.90;56.88;100523.50;5065076;27;19913;-49
2023/07/15 08:50:33;;;;;;;;;;;;;;;26.01;57.03;100529.19;5064184;28;19977;-47
2023/07/15 08:53:00;;;;;;;;;;;;;;;26.01;56.72;100544.13;5063370;28;19924;-51
2023/07/15 08:55:26;;;;;;;;;;;;;;;25.92;56.49;100538.34;5057244;28;20290;-48
2023/07/15 08:57:52;;;;;;;;;;;;;;;25.83;57.55;100535.19;5069900;28;19913;-50
2023/07/15 09:00:19;;;;;;;;;;;;;;;25.86;56.74;100543.00;5064270;28;19924;-49
2023/07/15 09:02:44;;;;;;;;;;;;;;;25.80;57.40;100540.59;5062800;28;19950;-52
2023/07/15 09:05:10;;;;;;;;;;;;;;;25.57;57.33;100547.59;5067463;27;19922;-46
2023/07/15 09:07:47;;;;;;;;;;;;;;;25.36;57.43;100551.03;5068459;28;19947;-50
2023/07/15 09:10:13;;;;;;;;;;;;;;;25.14;57.98;100559.75;5068965;27;19988;-52
2023/07/15 09:12:43;;;;;;;;;;;;;;;24.87;59.05;100555.44;5066997;28;19965;-53
2023/07/15 09:15:08;;;;;;;;;;;;;;;24.66;59.65;100558.84;5068708;28;20386;-54
2023/07/15 09:17:34;;;;;;;;;;;;;;;24.57;60.28;100547.75;5060843;28;19928;-51
2023/07/15 09:20:11;;;;;;;;;;;;;;;24.51;59.21;100553.22;5065069;28;20386;-52
2023/07/15 09:22:36;;;;;;;;;;;;;;;24.48;61.07;100560.34;5066857;28;20003;-54
2023/07/15 09:25:02;;;;;;;;;;;;;;;24.51;60.97;100547.09;5067886;28;20404;-52
2023/07/15 09:27:28;;;;;;;;;;;;;;;24.61;61.42;100559.00;5068570;28;19916;-51
2023/07/15 09:29:53;;;;;;;;;;;;;;;24.80;58.96;100561.84;5067500;28;20016;-51
2023/07/15 09:32:22;;;;;;;;;;;;;;;25.10;58.13;100552.03;5062080;28;19920;-51
2023/07/15 09:34:52;;;;;;;;;;;;;;;25.42;56.09;100561.34;5059342;28;19921;-53
2023/07/15 09:37:28;;;;;;;;;;;;;;;25.53;55.88;100556.53;5061403;28;20286;-54
2023/07/15 09:39:58;;;;;;;;;;;;;;;25.53;54.93;100559.16;5044953;28;19964;-53
2023/07/15 09:42:26;;;;;;;;;;;;;;;25.36;55.76;100562.47;5064382;28;19919;-54
2023/07/15 09:44:52;;;;;;;;;;;;;;;25.32;55.66;100560.00;5045971;28;20349;-52
2023/07/15 09:47:17;;;;;;;;;;;;;;;25.16;55.84;100564.09;5064214;28;19920;-52
2023/07/15 09:49:43;;;;;;;;;;;;;;;24.91;56.39;100572.84;5049044;28;19921;-48
2023/07/15 09:52:08;;;;;;;;;;;;;;;24.70;56.78;100582.38;5059620;27;19921;-52
2023/07/15 09:54:34;;;;;;;;;;;;;;;24.47;57.02;100595.44;5067457;28;20024;-53
2023/07/15 09:57:00;;;;;;;;;;;;;;;24.37;57.61;100592.25;5062186;27;19929;-51
2023/07/15 09:59:28;;;;;;;;;;;;;;;24.36;58.26;100598.41;5068199;28;19916;-52
2023/07/15 10:01:54;;;;;;;;;;;;;;;24.37;58.19;100610.63;5065651;28;19924;-52
2023/07/15 10:04:31;;;;;;;;;;;;;;;24.26;58.63;100610.09;5066615;28;19928;-51
2023/07/15 10:06:57;;;;;;;;;;;;;;;24.16;59.81;100601.66;5066925;28;19933;-51
2023/07/15 10:09:23;;;;;;;;;;;;;;;24.07;61.57;100604.56;5061621;28;19925;-50
2023/07/15 10:11:49;;;;;;;;;;;;;;;23.94;63.68;100601.47;5066039;28;19920;-50
2023/07/15 10:14:14;;;;;;;;;;;;;;;23.87;63.25;100596.47;5062236;28;19920;-51
2023/07/15 10:16:40;;;;;;;;;;;;;;;23.83;62.38;100593.06;5062921;28;19932;-50
2023/07/15 10:19:25;;;;;;;;;;;;;;;23.78;63.59;100597.59;5065508;28;19932;-51
2023/07/15 10:21:57;;;;;;;;;;;;;;;23.70;63.90;100586.47;5066332;28;19917;-47
2023/07/15 10:24:25;;;;;;;;;;;;;;;23.63;67.33;100564.81;5065737;28;19923;-47
2023/07/15 10:26:53;;;;;;;;;;;;;;;23.58;66.55;100571.06;5046022;28;19923;-50
2023/07/15 10:29:22;;;;;;;;;;;;;;;23.58;68.78;100577.19;5063898;28;19912;-48
2023/07/15 10:32:06;;;;;;;;;;;;;;;23.54;68.82;100559.81;5067021;28;19916;-50
2023/07/15 10:34:35;;;;;;;;;;;;;;;23.50;70.51;100559.03;5065467;28;19961;-52
2023/07/15 10:37:05;;;;;;;;;;;;;;;23.47;70.80;100560.88;5056511;28;19920;-49
2023/07/15 10:39:34;;;;;;;;;;;;;;;23.51;69.14;100573.88;5060198;28;19913;-49
2023/07/15 10:42:06;;;;;;;;;;;;;;;23.43;69.91;100562.75;5057887;27;19917;-50
2023/07/15 10:44:37;;;;;;;;;;;;;;;23.40;69.50;100551.50;5058488;28;19919;-51
2023/07/15 10:47:03;;;;;;;;;;;;;;;23.47;68.70;100547.78;5057791;28;19913;-50
2023/07/15 10:49:32;;;;;;;;;;;;;;;23.76;67.69;100560.03;5045053;28;19921;-51
2023/07/15 10:51:58;;;;;;;;;;;;;;;23.90;67.82;100560.44;5061734;28;19944;-51
2023/07/15 10:54:24;;;;;;;;;;;;;;;23.90;68.07;100568.34;5066961;28;20370;-49
2023/07/15 10:56:49;;;;;;;;;;;;;;;23.87;67.21;100557.94;5064862;28;19921;-51
2023/07/15 10:59:15;;;;;;;;;;;;;;;23.95;66.76;100563.78;5045052;28;19928;-50
2023/07/15 11:01:41;;;;;;;;;;;;;;;24.04;65.28;100575.78;5063349;28;19917;-50
2023/07/15 11:04:06;;;;;;;;;;;;;;;24.16;64.76;100578.03;5065258;28;20003;-51
2023/07/15 11:06:33;;;;;;;;;;;;;;;24.09;64.93;100579.13;5061864;28;20057;-48
2023/07/15 11:08:58;;;;;;;;;;;;;;;24.10;65.69;100580.00;5055380;28;19973;-49
2023/07/15 11:11:23;;;;;;;;;;;;;;;24.02;65.54;100570.56;5061719;28;19916;-49
2023/07/15 11:13:49;;;;;;;;;;;;;;;23.99;66.10;100575.94;5062625;28;19912;-48
2023/07/15 11:16:14;;;;;;;;;;;;;;;24.03;66.19;100568.84;5061392;28;20062;-52
2023/07/15 11:18:39;;;;;;;;;;;;;;;24.10;65.34;100574.75;5061624;28;19986;-51
2023/07/15 11:21:05;;;;;;;;;;;;;;;24.25;65.37;100580.34;5063190;28;19966;-50
2023/07/15 11:23:31;;;;;;;;;;;;;;;24.19;65.82;100569.16;5069460;28;20401;-52
2023/07/15 11:25:59;;;;;;;;;;;;;;;24.32;65.58;100559.97;5064683;28;20293;-51
2023/07/15 11:28:24;;;;;;;;;;;;;;;24.39;64.96;100572.06;5064641;28;20006;-47
2023/07/15 11:30:50;;;;;;;;;;;;;;;24.39;64.25;100560.66;5045127;28;20390;-50
2023/07/15 11:33:15;;;;;;;;;;;;;;;24.38;63.24;100565.03;5062995;28;19952;-51
2023/07/15 11:35:42;;;;;;;;;;;;;;;24.41;62.61;100559.72;5066335;28;19912;-50
2023/07/15 11:38:07;;;;;;;;;;;;;;;24.40;62.59;100558.00;5062876;28;20338;-50
2023/07/15 11:40:36;;;;;;;;;;;;;;;24.56;62.20;100543.38;5057490;28;19960;-51
2023/07/15 11:43:03;;;;;;;;;;;;;;;24.76;61.21;100550.59;5058633;28;20326;-49
2023/07/15 11:45:29;;;;;;;;;;;;;;;25.06;58.61;100547.81;5056998;28;19935;-50
2023/07/15 11:47:54;;;;;;;;;;;;;;;25.18;59.53;100559.63;5064203;28;20359;-51
2023/07/15 11:50:23;;;;;;;;;;;;;;;25.37;58.43;100537.00;5060546;28;20015;-50
2023/07/15 11:52:49;;;;;;;;;;;;;;;25.67;56.94;100532.31;5063075;28;19939;-51
2023/07/15 11:55:14;;;;;;;;;;;;;;;25.89;55.21;100521.78;5063868;27;20374;-48
2023/07/15 11:57:47;;;;;;;;;;;;;;;25.88;55.78;100526.19;5065811;28;19920;-48
2023/07/15 12:00:32;;;;;;;;;;;;;;;26.02;56.77;100525.63;5062996;28;19923;-56
2023/07/15 12:03:07;;;;;;;;;;;;;;;26.02;55.80;100517.72;5046531;28;20144;-55
2023/07/15 12:05:36;;;;;;;;;;;;;;;26.04;56.38;100521.16;5061642;28;20386;-55
2023/07/15 12:08:10;;;;;;;;;;;;;;;26.16;54.80;100520.66;5056321;28;19916;-54
2023/07/15 12:10:47;;;;;;;;;;;;;;;25.98;55.81;100512.66;5058677;28;19924;-55
2023/07/15 12:13:12;;;;;;;;;;;;;;;25.83;56.46;100517.63;5060667;28;19967;-55
2023/07/15 12:15:38;;;;;;;;;;;;;;;25.72;56.60;100509.25;5060268;28;20315;-54
2023/07/15 12:18:03;;;;;;;;;;;;;;;25.57;57.72;100508.09;5068594;27;19927;-54
2023/07/15 12:20:28;;;;;;;;;;;;;;;25.50;57.94;100509.28;5062786;27;19921;-49
2023/07/15 12:22:53;;;;;;;;;;;;;;;25.59;57.08;100518.56;5043015;28;20007;-50
2023/07/15 12:25:23;;;;;;;;;;;;;;;25.68;56.79;100505.06;5062763;28;19916;-48
2023/07/15 12:27:48;;;;;;;;;;;;;;;25.73;57.24;100507.50;5065795;28;19912;-49
2023/07/15 12:30:13;;;;;;;;;;;;;;;25.71;58.09;100510.19;5063069;28;19923;-47